sensor_id;sensor_type;location;lat;lon;timestamp;P1;durP1;ratioP1;P2;durP2;ratioP2
12474;SDS011;6302;42.624;23.334;2022-07-23T00:00:07;5.93;;;5.32;;
12474;SDS011;6302;42.624;23.334;2022-07-23T00:02:35;8.35;;;4.70;;
12474;SDS011;6302;42.624;23.334;2022-07-23T00:05:02;6.00;;;4.85;;
12474;SDS011;6302;42.624;23.334;2022-07-23T00:07:29;7.40;;;5.13;;
12474;SDS011;6302;42.624;23.334;2022-07-23T00:09:58;5.40;;;4.57;;
12474;SDS011;6302;42.624;23.334;2022-07-23T00:12:25;5.88;;;5.25;;
12474;SDS011;6302;42.624;23.334;2022-07-23T00:14:51;8.38;;;5.47;;
12474;SDS011;6302;42.624;23.334;2022-07-23T00:17:18;6.30;;;4.90;;
12474;SDS011;6302;42.624;23.334;2022-07-23T00:19:46;8.02;;;5.32;;
12474;SDS011;6302;42.624;23.334;2022-07-23T00:22:13;8.32;;;4.88;;
12474;SDS011;6302;42.624;23.334;2022-07-23T00:24:40;9.80;;;5.13;;
12474;SDS011;6302;42.624;23.334;2022-07-23T00:27:08;7.13;;;5.85;;
12474;SDS011;6302;42.624;23.334;2022-07-23T00:29:35;9.60;;;6.32;;
12474;SDS011;6302;42.624;23.334;2022-07-23T00:32:02;8.70;;;6.50;;
12474;SDS011;6302;42.624;23.334;2022-07-23T00:34:29;6.75;;;5.88;;
12474;SDS011;6302;42.624;23.334;2022-07-23T00:36:56;7.22;;;5.82;;
12474;SDS011;6302;42.624;23.334;2022-07-23T00:39:23;8.07;;;5.15;;
12474;SDS011;6302;42.624;23.334;2022-07-23T00:41:49;7.00;;;5.82;;
12474;SDS011;6302;42.624;23.334;2022-07-23T00:44:19;9.38;;;5.70;;
12474;SDS011;6302;42.624;23.334;2022-07-23T00:46:49;8.90;;;5.20;;
12474;SDS011;6302;42.624;23.334;2022-07-23T00:49:19;6.78;;;5.72;;
12474;SDS011;6302;42.624;23.334;2022-07-23T00:51:46;6.00;;;5.40;;
12474;SDS011;6302;42.624;23.334;2022-07-23T00:54:14;7.15;;;5.38;;
12474;SDS011;6302;42.624;23.334;2022-07-23T00:56:41;7.63;;;5.30;;
12474;SDS011;6302;42.624;23.334;2022-07-23T00:59:09;7.70;;;6.05;;
12474;SDS011;6302;42.624;23.334;2022-07-23T01:01:38;10.57;;;5.97;;
12474;SDS011;6302;42.624;23.334;2022-07-23T01:04:06;6.93;;;5.00;;
12474;SDS011;6302;42.624;23.334;2022-07-23T01:06:33;7.38;;;5.70;;
12474;SDS011;6302;42.624;23.334;2022-07-23T01:09:03;7.75;;;5.90;;
12474;SDS011;6302;42.624;23.334;2022-07-23T01:11:31;7.63;;;5.25;;
12474;SDS011;6302;42.624;23.334;2022-07-23T01:13:59;7.03;;;5.32;;
12474;SDS011;6302;42.624;23.334;2022-07-23T01:16:26;9.40;;;5.07;;
12474;SDS011;6302;42.624;23.334;2022-07-23T01:18:54;6.22;;;5.30;;
12474;SDS011;6302;42.624;23.334;2022-07-23T01:21:20;6.28;;;5.30;;
12474;SDS011;6302;42.624;23.334;2022-07-23T01:23:49;6.10;;;4.75;;
12474;SDS011;6302;42.624;23.334;2022-07-23T01:26:16;6.93;;;4.78;;
12474;SDS011;6302;42.624;23.334;2022-07-23T01:28:43;6.38;;;5.03;;
12474;SDS011;6302;42.624;23.334;2022-07-23T01:31:10;8.38;;;5.10;;
12474;SDS011;6302;42.624;23.334;2022-07-23T01:33:37;8.80;;;5.70;;
12474;SDS011;6302;42.624;23.334;2022-07-23T01:36:04;7.28;;;5.28;;
12474;SDS011;6302;42.624;23.334;2022-07-23T01:38:31;7.97;;;5.20;;
12474;SDS011;6302;42.624;23.334;2022-07-23T01:40:59;7.82;;;5.18;;
12474;SDS011;6302;42.624;23.334;2022-07-23T01:43:26;5.47;;;4.90;;
12474;SDS011;6302;42.624;23.334;2022-07-23T01:45:53;8.65;;;5.57;;
12474;SDS011;6302;42.624;23.334;2022-07-23T01:48:20;6.60;;;5.68;;
12474;SDS011;6302;42.624;23.334;2022-07-23T01:50:47;6.13;;;5.10;;
12474;SDS011;6302;42.624;23.334;2022-07-23T01:53:14;6.07;;;5.32;;
12474;SDS011;6302;42.624;23.334;2022-07-23T01:55:41;6.93;;;5.25;;
12474;SDS011;6302;42.624;23.334;2022-07-23T01:58:10;5.97;;;5.10;;
12474;SDS011;6302;42.624;23.334;2022-07-23T02:00:37;7.18;;;5.18;;
12474;SDS011;6302;42.624;23.334;2022-07-23T02:03:04;7.25;;;5.00;;
12474;SDS011;6302;42.624;23.334;2022-07-23T02:05:30;6.50;;;5.00;;
12474;SDS011;6302;42.624;23.334;2022-07-23T02:07:57;7.68;;;5.03;;
12474;SDS011;6302;42.624;23.334;2022-07-23T02:10:24;6.22;;;5.00;;
12474;SDS011;6302;42.624;23.334;2022-07-23T02:12:52;10.00;;;5.13;;
12474;SDS011;6302;42.624;23.334;2022-07-23T02:15:20;7.47;;;4.97;;
12474;SDS011;6302;42.624;23.334;2022-07-23T02:17:47;6.77;;;5.10;;
12474;SDS011;6302;42.624;23.334;2022-07-23T02:20:13;8.20;;;5.47;;
12474;SDS011;6302;42.624;23.334;2022-07-23T02:22:40;7.10;;;5.40;;
12474;SDS011;6302;42.624;23.334;2022-07-23T02:25:07;7.95;;;5.22;;
12474;SDS011;6302;42.624;23.334;2022-07-23T02:27:35;7.63;;;5.53;;
12474;SDS011;6302;42.624;23.334;2022-07-23T02:30:02;5.72;;;4.88;;
12474;SDS011;6302;42.624;23.334;2022-07-23T02:32:31;7.60;;;5.95;;
12474;SDS011;6302;42.624;23.334;2022-07-23T02:34:58;6.43;;;5.50;;
12474;SDS011;6302;42.624;23.334;2022-07-23T02:37:25;7.15;;;5.43;;
12474;SDS011;6302;42.624;23.334;2022-07-23T02:39:52;7.10;;;5.07;;
12474;SDS011;6302;42.624;23.334;2022-07-23T02:42:19;7.00;;;5.43;;
12474;SDS011;6302;42.624;23.334;2022-07-23T02:44:46;7.40;;;5.00;;
12474;SDS011;6302;42.624;23.334;2022-07-23T02:47:13;8.13;;;5.32;;
12474;SDS011;6302;42.624;23.334;2022-07-23T02:49:41;7.97;;;5.75;;
12474;SDS011;6302;42.624;23.334;2022-07-23T02:52:08;7.13;;;5.60;;
12474;SDS011;6302;42.624;23.334;2022-07-23T02:54:35;6.87;;;5.70;;
12474;SDS011;6302;42.624;23.334;2022-07-23T02:57:02;6.65;;;5.10;;
12474;SDS011;6302;42.624;23.334;2022-07-23T02:59:29;7.83;;;5.20;;
12474;SDS011;6302;42.624;23.334;2022-07-23T03:01:56;9.38;;;5.35;;
12474;SDS011;6302;42.624;23.334;2022-07-23T03:04:23;9.57;;;5.78;;
12474;SDS011;6302;42.624;23.334;2022-07-23T03:06:51;6.97;;;5.40;;
12474;SDS011;6302;42.624;23.334;2022-07-23T03:09:18;6.82;;;5.40;;
12474;SDS011;6302;42.624;23.334;2022-07-23T03:11:45;7.53;;;4.88;;
12474;SDS011;6302;42.624;23.334;2022-07-23T03:14:12;7.80;;;5.35;;
12474;SDS011;6302;42.624;23.334;2022-07-23T03:16:41;7.45;;;5.68;;
12474;SDS011;6302;42.624;23.334;2022-07-23T03:19:08;11.27;;;6.63;;
12474;SDS011;6302;42.624;23.334;2022-07-23T03:21:35;9.07;;;5.60;;
12474;SDS011;6302;42.624;23.334;2022-07-23T03:24:06;9.07;;;5.88;;
12474;SDS011;6302;42.624;23.334;2022-07-23T03:26:34;8.40;;;5.47;;
12474;SDS011;6302;42.624;23.334;2022-07-23T03:29:01;8.40;;;5.43;;
12474;SDS011;6302;42.624;23.334;2022-07-23T03:31:28;6.73;;;5.50;;
12474;SDS011;6302;42.624;23.334;2022-07-23T03:33:56;9.65;;;5.45;;
12474;SDS011;6302;42.624;23.334;2022-07-23T03:36:23;8.37;;;5.53;;
12474;SDS011;6302;42.624;23.334;2022-07-23T03:38:50;11.50;;;5.30;;
12474;SDS011;6302;42.624;23.334;2022-07-23T03:41:18;9.63;;;5.43;;
12474;SDS011;6302;42.624;23.334;2022-07-23T03:43:46;5.40;;;4.90;;
12474;SDS011;6302;42.624;23.334;2022-07-23T03:46:13;7.75;;;5.85;;
12474;SDS011;6302;42.624;23.334;2022-07-23T03:48:40;9.20;;;5.70;;
12474;SDS011;6302;42.624;23.334;2022-07-23T03:51:06;8.95;;;6.18;;
12474;SDS011;6302;42.624;23.334;2022-07-23T03:53:34;8.82;;;5.82;;
12474;SDS011;6302;42.624;23.334;2022-07-23T03:56:00;8.43;;;6.18;;
12474;SDS011;6302;42.624;23.334;2022-07-23T03:58:29;9.10;;;6.40;;
12474;SDS011;6302;42.624;23.334;2022-07-23T04:00:56;7.60;;;6.57;;
12474;SDS011;6302;42.624;23.334;2022-07-23T04:03:22;7.20;;;6.47;;
12474;SDS011;6302;42.624;23.334;2022-07-23T04:05:49;7.72;;;6.47;;
12474;SDS011;6302;42.624;23.334;2022-07-23T04:08:16;7.87;;;6.43;;
12474;SDS011;6302;42.624;23.334;2022-07-23T04:10:43;13.40;;;6.63;;
12474;SDS011;6302;42.624;23.334;2022-07-23T04:13:10;8.73;;;7.00;;
12474;SDS011;6302;42.624;23.334;2022-07-23T04:15:38;10.53;;;7.13;;
12474;SDS011;6302;42.624;23.334;2022-07-23T04:18:05;14.52;;;7.35;;
12474;SDS011;6302;42.624;23.334;2022-07-23T04:20:33;14.37;;;8.30;;
12474;SDS011;6302;42.624;23.334;2022-07-23T04:22:59;18.85;;;7.82;;
12474;SDS011;6302;42.624;23.334;2022-07-23T04:25:26;12.23;;;7.97;;
12474;SDS011;6302;42.624;23.334;2022-07-23T04:27:53;17.23;;;8.13;;
12474;SDS011;6302;42.624;23.334;2022-07-23T04:30:20;9.97;;;7.70;;
12474;SDS011;6302;42.624;23.334;2022-07-23T04:32:48;9.10;;;8.13;;
12474;SDS011;6302;42.624;23.334;2022-07-23T04:35:15;11.43;;;7.40;;
12474;SDS011;6302;42.624;23.334;2022-07-23T04:37:42;8.68;;;7.88;;
12474;SDS011;6302;42.624;23.334;2022-07-23T04:40:09;11.68;;;8.43;;
12474;SDS011;6302;42.624;23.334;2022-07-23T04:42:37;9.18;;;7.70;;
12474;SDS011;6302;42.624;23.334;2022-07-23T04:45:05;12.00;;;7.45;;
12474;SDS011;6302;42.624;23.334;2022-07-23T04:47:32;10.25;;;7.78;;
12474;SDS011;6302;42.624;23.334;2022-07-23T04:50:00;11.27;;;8.23;;
12474;SDS011;6302;42.624;23.334;2022-07-23T04:52:27;9.85;;;8.18;;
12474;SDS011;6302;42.624;23.334;2022-07-23T04:54:54;11.23;;;8.27;;
12474;SDS011;6302;42.624;23.334;2022-07-23T04:57:21;11.10;;;8.02;;
12474;SDS011;6302;42.624;23.334;2022-07-23T04:59:48;11.93;;;8.35;;
12474;SDS011;6302;42.624;23.334;2022-07-23T05:02:15;12.93;;;9.00;;
12474;SDS011;6302;42.624;23.334;2022-07-23T05:04:42;11.75;;;9.13;;
12474;SDS011;6302;42.624;23.334;2022-07-23T05:07:10;11.55;;;8.55;;
12474;SDS011;6302;42.624;23.334;2022-07-23T05:09:37;17.55;;;9.30;;
12474;SDS011;6302;42.624;23.334;2022-07-23T05:12:04;10.90;;;8.95;;
12474;SDS011;6302;42.624;23.334;2022-07-23T05:14:31;11.70;;;8.70;;
12474;SDS011;6302;42.624;23.334;2022-07-23T05:16:58;17.33;;;9.93;;
12474;SDS011;6302;42.624;23.334;2022-07-23T05:19:25;13.30;;;8.75;;
12474;SDS011;6302;42.624;23.334;2022-07-23T05:21:51;13.05;;;9.00;;
12474;SDS011;6302;42.624;23.334;2022-07-23T05:24:20;13.63;;;8.30;;
12474;SDS011;6302;42.624;23.334;2022-07-23T05:26:46;9.52;;;7.13;;
12474;SDS011;6302;42.624;23.334;2022-07-23T05:29:13;8.18;;;7.30;;
12474;SDS011;6302;42.624;23.334;2022-07-23T05:31:40;9.73;;;6.85;;
12474;SDS011;6302;42.624;23.334;2022-07-23T05:34:07;10.88;;;7.18;;
12474;SDS011;6302;42.624;23.334;2022-07-23T05:36:34;10.00;;;7.20;;
12474;SDS011;6302;42.624;23.334;2022-07-23T05:39:03;7.53;;;6.72;;
12474;SDS011;6302;42.624;23.334;2022-07-23T05:41:31;11.88;;;7.32;;
12474;SDS011;6302;42.624;23.334;2022-07-23T05:43:58;10.80;;;7.05;;
12474;SDS011;6302;42.624;23.334;2022-07-23T05:46:25;12.32;;;7.20;;
12474;SDS011;6302;42.624;23.334;2022-07-23T05:48:52;9.20;;;7.03;;
12474;SDS011;6302;42.624;23.334;2022-07-23T05:51:22;9.05;;;6.18;;
12474;SDS011;6302;42.624;23.334;2022-07-23T05:53:50;8.25;;;6.28;;
12474;SDS011;6302;42.624;23.334;2022-07-23T05:56:17;9.40;;;6.38;;
12474;SDS011;6302;42.624;23.334;2022-07-23T05:58:46;7.60;;;6.82;;
12474;SDS011;6302;42.624;23.334;2022-07-23T06:01:13;7.53;;;6.82;;
12474;SDS011;6302;42.624;23.334;2022-07-23T06:03:40;8.60;;;6.30;;
12474;SDS011;6302;42.624;23.334;2022-07-23T06:06:07;10.55;;;7.25;;
12474;SDS011;6302;42.624;23.334;2022-07-23T06:08:34;11.13;;;6.35;;
12474;SDS011;6302;42.624;23.334;2022-07-23T06:11:01;10.95;;;6.35;;
12474;SDS011;6302;42.624;23.334;2022-07-23T06:13:28;11.88;;;6.47;;
12474;SDS011;6302;42.624;23.334;2022-07-23T06:15:56;13.02;;;6.22;;
12474;SDS011;6302;42.624;23.334;2022-07-23T06:18:23;8.00;;;6.05;;
12474;SDS011;6302;42.624;23.334;2022-07-23T06:20:50;8.00;;;6.47;;
12474;SDS011;6302;42.624;23.334;2022-07-23T06:23:17;11.38;;;6.85;;
12474;SDS011;6302;42.624;23.334;2022-07-23T06:25:44;12.93;;;7.53;;
12474;SDS011;6302;42.624;23.334;2022-07-23T06:28:10;12.38;;;7.28;;
12474;SDS011;6302;42.624;23.334;2022-07-23T06:30:37;12.45;;;7.00;;
12474;SDS011;6302;42.624;23.334;2022-07-23T06:33:05;11.48;;;6.95;;
12474;SDS011;6302;42.624;23.334;2022-07-23T06:35:32;12.95;;;6.78;;
12474;SDS011;6302;42.624;23.334;2022-07-23T06:37:59;12.45;;;7.10;;
12474;SDS011;6302;42.624;23.334;2022-07-23T06:40:26;11.85;;;7.20;;
12474;SDS011;6302;42.624;23.334;2022-07-23T06:42:53;8.88;;;6.93;;
12474;SDS011;6302;42.624;23.334;2022-07-23T06:45:20;12.70;;;7.43;;
12474;SDS011;6302;42.624;23.334;2022-07-23T06:47:47;13.82;;;6.18;;
12474;SDS011;6302;42.624;23.334;2022-07-23T06:50:15;17.10;;;8.18;;
12474;SDS011;6302;42.624;23.334;2022-07-23T06:52:42;9.88;;;7.50;;
12474;SDS011;6302;42.624;23.334;2022-07-23T06:55:09;12.32;;;7.22;;
12474;SDS011;6302;42.624;23.334;2022-07-23T06:57:36;17.88;;;8.07;;
12474;SDS011;6302;42.624;23.334;2022-07-23T07:00:03;28.02;;;8.88;;
12474;SDS011;6302;42.624;23.334;2022-07-23T07:02:31;12.90;;;8.25;;
12474;SDS011;6302;42.624;23.334;2022-07-23T07:04:58;13.40;;;8.40;;
12474;SDS011;6302;42.624;23.334;2022-07-23T07:07:26;18.13;;;8.23;;
12474;SDS011;6302;42.624;23.334;2022-07-23T07:09:53;17.05;;;7.78;;
12474;SDS011;6302;42.624;23.334;2022-07-23T07:12:20;15.35;;;8.02;;
12474;SDS011;6302;42.624;23.334;2022-07-23T07:14:47;16.17;;;7.70;;
12474;SDS011;6302;42.624;23.334;2022-07-23T07:17:14;15.93;;;7.63;;
12474;SDS011;6302;42.624;23.334;2022-07-23T07:19:41;11.43;;;7.70;;
12474;SDS011;6302;42.624;23.334;2022-07-23T07:22:08;15.65;;;7.45;;
12474;SDS011;6302;42.624;23.334;2022-07-23T07:24:36;16.05;;;7.80;;
12474;SDS011;6302;42.624;23.334;2022-07-23T07:27:03;20.77;;;8.25;;
12474;SDS011;6302;42.624;23.334;2022-07-23T07:29:30;14.18;;;7.30;;
12474;SDS011;6302;42.624;23.334;2022-07-23T07:31:57;16.00;;;7.72;;
12474;SDS011;6302;42.624;23.334;2022-07-23T07:34:24;21.65;;;8.15;;
12474;SDS011;6302;42.624;23.334;2022-07-23T07:36:51;13.90;;;7.05;;
12474;SDS011;6302;42.624;23.334;2022-07-23T07:39:18;18.58;;;8.05;;
12474;SDS011;6302;42.624;23.334;2022-07-23T07:41:47;17.33;;;8.43;;
12474;SDS011;6302;42.624;23.334;2022-07-23T07:44:13;16.73;;;7.13;;
12474;SDS011;6302;42.624;23.334;2022-07-23T07:46:41;13.73;;;8.27;;
12474;SDS011;6302;42.624;23.334;2022-07-23T07:49:08;15.52;;;8.63;;
12474;SDS011;6302;42.624;23.334;2022-07-23T07:51:35;12.63;;;7.50;;
12474;SDS011;6302;42.624;23.334;2022-07-23T07:54:02;13.07;;;7.55;;
12474;SDS011;6302;42.624;23.334;2022-07-23T07:56:29;14.40;;;8.38;;
12474;SDS011;6302;42.624;23.334;2022-07-23T07:58:57;12.40;;;7.35;;
12474;SDS011;6302;42.624;23.334;2022-07-23T08:01:25;14.82;;;7.40;;
12474;SDS011;6302;42.624;23.334;2022-07-23T08:03:52;11.70;;;8.05;;
12474;SDS011;6302;42.624;23.334;2022-07-23T08:06:19;15.18;;;8.00;;
12474;SDS011;6302;42.624;23.334;2022-07-23T08:08:46;13.38;;;7.45;;
12474;SDS011;6302;42.624;23.334;2022-07-23T08:11:13;13.82;;;8.45;;
12474;SDS011;6302;42.624;23.334;2022-07-23T08:13:39;16.45;;;7.18;;
12474;SDS011;6302;42.624;23.334;2022-07-23T08:16:08;15.65;;;7.10;;
12474;SDS011;6302;42.624;23.334;2022-07-23T08:18:34;14.90;;;7.80;;
12474;SDS011;6302;42.624;23.334;2022-07-23T08:21:01;11.48;;;7.47;;
12474;SDS011;6302;42.624;23.334;2022-07-23T08:23:30;16.50;;;7.95;;
12474;SDS011;6302;42.624;23.334;2022-07-23T08:25:57;13.20;;;7.53;;
12474;SDS011;6302;42.624;23.334;2022-07-23T08:28:26;14.80;;;7.65;;
12474;SDS011;6302;42.624;23.334;2022-07-23T08:30:53;13.10;;;7.20;;
12474;SDS011;6302;42.624;23.334;2022-07-23T08:33:21;15.02;;;7.85;;
12474;SDS011;6302;42.624;23.334;2022-07-23T08:35:49;16.30;;;6.90;;
12474;SDS011;6302;42.624;23.334;2022-07-23T08:38:19;13.45;;;8.07;;
12474;SDS011;6302;42.624;23.334;2022-07-23T08:40:47;10.73;;;7.53;;
12474;SDS011;6302;42.624;23.334;2022-07-23T08:43:15;12.63;;;7.68;;
12474;SDS011;6302;42.624;23.334;2022-07-23T08:45:45;11.45;;;6.88;;
12474;SDS011;6302;42.624;23.334;2022-07-23T08:48:13;12.38;;;7.38;;
12474;SDS011;6302;42.624;23.334;2022-07-23T08:50:43;15.32;;;7.35;;
12474;SDS011;6302;42.624;23.334;2022-07-23T08:53:12;12.93;;;7.38;;
12474;SDS011;6302;42.624;23.334;2022-07-23T08:55:39;10.32;;;6.85;;
12474;SDS011;6302;42.624;23.334;2022-07-23T08:58:09;16.42;;;8.00;;
12474;SDS011;6302;42.624;23.334;2022-07-23T09:00:36;12.73;;;8.55;;
12474;SDS011;6302;42.624;23.334;2022-07-23T09:03:03;11.57;;;7.68;;
12474;SDS011;6302;42.624;23.334;2022-07-23T09:05:30;12.88;;;7.60;;
12474;SDS011;6302;42.624;23.334;2022-07-23T09:08:10;9.40;;;7.47;;
12474;SDS011;6302;42.624;23.334;2022-07-23T09:10:45;8.70;;;7.28;;
12474;SDS011;6302;42.624;23.334;2022-07-23T09:13:23;12.70;;;7.30;;
12474;SDS011;6302;42.624;23.334;2022-07-23T09:15:52;13.50;;;7.53;;
12474;SDS011;6302;42.624;23.334;2022-07-23T09:18:27;14.55;;;7.07;;
12474;SDS011;6302;42.624;23.334;2022-07-23T09:21:05;14.10;;;7.45;;
12474;SDS011;6302;42.624;23.334;2022-07-23T09:23:41;14.00;;;7.53;;
12474;SDS011;6302;42.624;23.334;2022-07-23T09:28:57;15.00;;;7.93;;
12474;SDS011;6302;42.624;23.334;2022-07-23T09:31:30;8.23;;;7.32;;
12474;SDS011;6302;42.624;23.334;2022-07-23T09:34:06;8.70;;;7.22;;
12474;SDS011;6302;42.624;23.334;2022-07-23T09:36:34;10.25;;;7.18;;
12474;SDS011;6302;42.624;23.334;2022-07-23T09:39:03;16.40;;;7.30;;
12474;SDS011;6302;42.624;23.334;2022-07-23T09:41:33;10.52;;;6.63;;
12474;SDS011;6302;42.624;23.334;2022-07-23T09:44:06;15.55;;;7.32;;
12474;SDS011;6302;42.624;23.334;2022-07-23T09:46:37;11.30;;;7.15;;
12474;SDS011;6302;42.624;23.334;2022-07-23T09:49:13;9.73;;;6.90;;
12474;SDS011;6302;42.624;23.334;2022-07-23T09:51:44;8.98;;;6.32;;
12474;SDS011;6302;42.624;23.334;2022-07-23T09:54:24;8.82;;;6.28;;
12474;SDS011;6302;42.624;23.334;2022-07-23T09:56:54;9.65;;;6.75;;
12474;SDS011;6302;42.624;23.334;2022-07-23T09:59:23;11.82;;;6.90;;
12474;SDS011;6302;42.624;23.334;2022-07-23T10:01:52;8.98;;;6.65;;
12474;SDS011;6302;42.624;23.334;2022-07-23T10:04:21;10.80;;;6.60;;
12474;SDS011;6302;42.624;23.334;2022-07-23T10:06:50;9.93;;;6.22;;
12474;SDS011;6302;42.624;23.334;2022-07-23T10:09:18;8.88;;;6.80;;
12474;SDS011;6302;42.624;23.334;2022-07-23T10:11:51;10.00;;;6.45;;
12474;SDS011;6302;42.624;23.334;2022-07-23T10:14:21;10.30;;;6.60;;
12474;SDS011;6302;42.624;23.334;2022-07-23T10:16:48;9.55;;;6.07;;
12474;SDS011;6302;42.624;23.334;2022-07-23T10:19:16;8.73;;;6.20;;
12474;SDS011;6302;42.624;23.334;2022-07-23T10:21:44;8.52;;;6.00;;
12474;SDS011;6302;42.624;23.334;2022-07-23T10:24:16;10.90;;;6.45;;
12474;SDS011;6302;42.624;23.334;2022-07-23T10:26:53;9.20;;;6.32;;
12474;SDS011;6302;42.624;23.334;2022-07-23T10:29:32;14.05;;;5.65;;
12474;SDS011;6302;42.624;23.334;2022-07-23T10:32:08;7.55;;;5.80;;
12474;SDS011;6302;42.624;23.334;2022-07-23T10:34:44;7.28;;;5.68;;
12474;SDS011;6302;42.624;23.334;2022-07-23T10:37:17;10.25;;;6.28;;
12474;SDS011;6302;42.624;23.334;2022-07-23T10:40:01;8.63;;;5.65;;
12474;SDS011;6302;42.624;23.334;2022-07-23T10:42:37;12.60;;;5.90;;
12474;SDS011;6302;42.624;23.334;2022-07-23T10:47:49;9.13;;;5.72;;
12474;SDS011;6302;42.624;23.334;2022-07-23T10:50:20;9.27;;;5.85;;
12474;SDS011;6302;42.624;23.334;2022-07-23T10:53:07;7.40;;;5.20;;
12474;SDS011;6302;42.624;23.334;2022-07-23T10:55:42;11.57;;;5.90;;
12474;SDS011;6302;42.624;23.334;2022-07-23T10:58:19;10.60;;;5.00;;
12474;SDS011;6302;42.624;23.334;2022-07-23T11:00:48;13.10;;;5.35;;
12474;SDS011;6302;42.624;23.334;2022-07-23T11:06:04;10.30;;;5.30;;
12474;SDS011;6302;42.624;23.334;2022-07-23T11:08:32;9.30;;;5.38;;
12474;SDS011;6302;42.624;23.334;2022-07-23T11:11:09;12.38;;;5.32;;
12474;SDS011;6302;42.624;23.334;2022-07-23T11:13:41;10.90;;;5.22;;
12474;SDS011;6302;42.624;23.334;2022-07-23T11:16:17;11.07;;;5.60;;
12474;SDS011;6302;42.624;23.334;2022-07-23T11:21:49;11.38;;;5.90;;
12474;SDS011;6302;42.624;23.334;2022-07-23T11:24:18;11.95;;;5.65;;
12474;SDS011;6302;42.624;23.334;2022-07-23T11:26:56;9.98;;;5.95;;
12474;SDS011;6302;42.624;23.334;2022-07-23T11:32:18;16.42;;;5.95;;
12474;SDS011;6302;42.624;23.334;2022-07-23T11:34:55;31.75;;;7.03;;
12474;SDS011;6302;42.624;23.334;2022-07-23T11:37:27;10.07;;;6.00;;
12474;SDS011;6302;42.624;23.334;2022-07-23T11:39:56;15.85;;;5.32;;
12474;SDS011;6302;42.624;23.334;2022-07-23T11:42:24;13.25;;;5.95;;
12474;SDS011;6302;42.624;23.334;2022-07-23T11:44:52;10.63;;;5.70;;
12474;SDS011;6302;42.624;23.334;2022-07-23T11:47:21;9.32;;;6.10;;
12474;SDS011;6302;42.624;23.334;2022-07-23T11:49:53;13.65;;;5.50;;
12474;SDS011;6302;42.624;23.334;2022-07-23T11:52:22;9.80;;;5.63;;
12474;SDS011;6302;42.624;23.334;2022-07-23T11:54:51;11.70;;;6.25;;
12474;SDS011;6302;42.624;23.334;2022-07-23T11:57:19;14.35;;;5.85;;
12474;SDS011;6302;42.624;23.334;2022-07-23T11:59:47;12.88;;;5.78;;
12474;SDS011;6302;42.624;23.334;2022-07-23T12:02:21;11.90;;;5.93;;
12474;SDS011;6302;42.624;23.334;2022-07-23T12:04:48;13.35;;;5.40;;
12474;SDS011;6302;42.624;23.334;2022-07-23T12:07:23;10.15;;;5.25;;
12474;SDS011;6302;42.624;23.334;2022-07-23T12:09:54;12.25;;;5.40;;
12474;SDS011;6302;42.624;23.334;2022-07-23T12:12:22;12.73;;;5.20;;
12474;SDS011;6302;42.624;23.334;2022-07-23T12:14:50;13.85;;;4.97;;
12474;SDS011;6302;42.624;23.334;2022-07-23T12:17:18;13.40;;;5.82;;
12474;SDS011;6302;42.624;23.334;2022-07-23T12:19:47;10.25;;;5.93;;
12474;SDS011;6302;42.624;23.334;2022-07-23T12:22:14;10.30;;;6.03;;
12474;SDS011;6302;42.624;23.334;2022-07-23T12:24:57;11.40;;;5.38;;
12474;SDS011;6302;42.624;23.334;2022-07-23T12:27:26;14.07;;;5.80;;
12474;SDS011;6302;42.624;23.334;2022-07-23T12:29:53;16.42;;;6.35;;
12474;SDS011;6302;42.624;23.334;2022-07-23T12:32:22;12.35;;;5.38;;
12474;SDS011;6302;42.624;23.334;2022-07-23T12:35:00;12.32;;;5.28;;
12474;SDS011;6302;42.624;23.334;2022-07-23T12:37:30;8.05;;;4.85;;
12474;SDS011;6302;42.624;23.334;2022-07-23T12:39:58;10.70;;;5.43;;
12474;SDS011;6302;42.624;23.334;2022-07-23T12:42:44;9.50;;;5.00;;
12474;SDS011;6302;42.624;23.334;2022-07-23T12:45:11;10.40;;;5.22;;
12474;SDS011;6302;42.624;23.334;2022-07-23T12:48:00;9.45;;;5.00;;
12474;SDS011;6302;42.624;23.334;2022-07-23T12:50:31;15.85;;;5.88;;
12474;SDS011;6302;42.624;23.334;2022-07-23T12:53:09;10.13;;;4.97;;
12474;SDS011;6302;42.624;23.334;2022-07-23T12:55:39;13.50;;;5.57;;
12474;SDS011;6302;42.624;23.334;2022-07-23T12:58:10;12.05;;;5.03;;
12474;SDS011;6302;42.624;23.334;2022-07-23T13:00:51;11.35;;;5.32;;
12474;SDS011;6302;42.624;23.334;2022-07-23T13:03:22;13.27;;;5.20;;
12474;SDS011;6302;42.624;23.334;2022-07-23T13:05:50;13.68;;;5.88;;
12474;SDS011;6302;42.624;23.334;2022-07-23T13:08:17;9.25;;;5.28;;
12474;SDS011;6302;42.624;23.334;2022-07-23T13:10:44;12.13;;;4.97;;
12474;SDS011;6302;42.624;23.334;2022-07-23T13:13:14;16.23;;;4.78;;
12474;SDS011;6302;42.624;23.334;2022-07-23T13:15:41;12.90;;;5.65;;
12474;SDS011;6302;42.624;23.334;2022-07-23T13:18:08;11.50;;;4.68;;
12474;SDS011;6302;42.624;23.334;2022-07-23T13:20:38;14.95;;;5.13;;
12474;SDS011;6302;42.624;23.334;2022-07-23T13:23:12;12.38;;;5.22;;
12474;SDS011;6302;42.624;23.334;2022-07-23T13:25:40;11.75;;;5.32;;
12474;SDS011;6302;42.624;23.334;2022-07-23T13:28:07;15.38;;;5.35;;
12474;SDS011;6302;42.624;23.334;2022-07-23T13:30:34;15.35;;;5.00;;
12474;SDS011;6302;42.624;23.334;2022-07-23T13:33:02;14.95;;;5.05;;
12474;SDS011;6302;42.624;23.334;2022-07-23T13:35:29;11.85;;;4.80;;
12474;SDS011;6302;42.624;23.334;2022-07-23T13:37:58;12.15;;;4.60;;
12474;SDS011;6302;42.624;23.334;2022-07-23T13:40:25;13.65;;;5.25;;
12474;SDS011;6302;42.624;23.334;2022-07-23T13:42:52;11.05;;;4.82;;
12474;SDS011;6302;42.624;23.334;2022-07-23T13:45:19;12.30;;;4.60;;
12474;SDS011;6302;42.624;23.334;2022-07-23T13:47:46;12.05;;;5.13;;
12474;SDS011;6302;42.624;23.334;2022-07-23T13:50:15;12.98;;;5.07;;
12474;SDS011;6302;42.624;23.334;2022-07-23T13:52:42;11.52;;;4.68;;
12474;SDS011;6302;42.624;23.334;2022-07-23T13:55:10;11.85;;;5.45;;
12474;SDS011;6302;42.624;23.334;2022-07-23T13:57:37;11.90;;;4.85;;
12474;SDS011;6302;42.624;23.334;2022-07-23T14:00:05;13.90;;;5.03;;
12474;SDS011;6302;42.624;23.334;2022-07-23T14:02:34;10.57;;;4.40;;
12474;SDS011;6302;42.624;23.334;2022-07-23T14:05:03;10.50;;;4.90;;
12474;SDS011;6302;42.624;23.334;2022-07-23T14:07:31;9.63;;;5.43;;
12474;SDS011;6302;42.624;23.334;2022-07-23T14:09:58;10.85;;;5.10;;
12474;SDS011;6302;42.624;23.334;2022-07-23T14:12:26;7.93;;;4.88;;
12474;SDS011;6302;42.624;23.334;2022-07-23T14:14:53;9.40;;;4.80;;
12474;SDS011;6302;42.624;23.334;2022-07-23T14:17:20;9.02;;;4.47;;
12474;SDS011;6302;42.624;23.334;2022-07-23T14:19:47;10.32;;;5.07;;
12474;SDS011;6302;42.624;23.334;2022-07-23T14:22:14;12.55;;;5.10;;
12474;SDS011;6302;42.624;23.334;2022-07-23T14:24:41;9.43;;;5.05;;
12474;SDS011;6302;42.624;23.334;2022-07-23T14:27:08;12.63;;;4.80;;
12474;SDS011;6302;42.624;23.334;2022-07-23T14:29:36;7.75;;;4.65;;
12474;SDS011;6302;42.624;23.334;2022-07-23T14:32:03;9.80;;;4.97;;
12474;SDS011;6302;42.624;23.334;2022-07-23T14:34:31;7.00;;;5.05;;
12474;SDS011;6302;42.624;23.334;2022-07-23T14:36:58;8.18;;;5.13;;
12474;SDS011;6302;42.624;23.334;2022-07-23T14:39:25;15.30;;;5.75;;
12474;SDS011;6302;42.624;23.334;2022-07-23T14:41:52;10.43;;;4.82;;
12474;SDS011;6302;42.624;23.334;2022-07-23T14:44:19;9.65;;;5.40;;
12474;SDS011;6302;42.624;23.334;2022-07-23T14:46:48;8.18;;;4.50;;
12474;SDS011;6302;42.624;23.334;2022-07-23T14:49:15;8.07;;;4.82;;
12474;SDS011;6302;42.624;23.334;2022-07-23T14:51:42;8.50;;;4.72;;
12474;SDS011;6302;42.624;23.334;2022-07-23T14:54:09;16.10;;;5.15;;
12474;SDS011;6302;42.624;23.334;2022-07-23T14:56:37;17.42;;;5.38;;
12474;SDS011;6302;42.624;23.334;2022-07-23T14:59:04;10.95;;;5.47;;
12474;SDS011;6302;42.624;23.334;2022-07-23T15:01:31;10.77;;;5.10;;